createdAt,value
2018-03-17T00:01:00.380Z,4.50
2018-03-17T00:03:26.346Z,4.50
2018-03-17T00:05:53.066Z,4.40
2018-03-17T00:08:19.071Z,4.40
2018-03-17T00:10:45.745Z,4.30
2018-03-17T00:13:11.716Z,4.20
2018-03-17T00:15:37.675Z,4.20
2018-03-17T00:18:04.404Z,3.90
2018-03-17T00:20:31.124Z,3.80
2018-03-17T00:22:57.084Z,3.90
2018-03-17T00:25:23.057Z,3.90
2018-03-17T00:27:49.030Z,3.90
2018-03-17T00:30:14.996Z,3.90
2018-03-17T00:32:41.698Z,3.80
2018-03-17T00:35:07.667Z,3.80
2018-03-17T00:37:33.624Z,3.90
2018-03-17T00:39:59.614Z,3.80
2018-03-17T00:42:26.329Z,3.60
2018-03-17T00:44:52.290Z,3.60
2018-03-17T00:47:19.012Z,3.60
2018-03-17T00:49:45.751Z,3.50
2018-03-17T00:52:11.787Z,3.50
2018-03-17T00:54:37.914Z,3.60
2018-03-17T00:57:03.990Z,3.70
2018-03-17T00:59:30.732Z,3.60
2018-03-17T01:01:57.475Z,3.50
2018-03-17T01:04:23.452Z,3.60
2018-03-17T01:06:49.464Z,3.60
2018-03-17T01:09:16.180Z,3.30
2018-03-17T01:11:42.188Z,3.30
2018-03-17T01:14:08.282Z,3.30
2018-03-17T01:16:35.149Z,3.30
2018-03-17T01:19:01.897Z,3.30
2018-03-17T01:21:28.631Z,3.30
2018-03-17T01:23:54.628Z,3.30
2018-03-17T01:26:27.651Z,3.40
2018-03-17T01:28:53.641Z,3.30
2018-03-17T01:31:19.718Z,3.30
2018-03-17T01:33:45.700Z,3.40
2018-03-17T01:36:12.865Z,3.30
2018-03-17T01:38:39.668Z,3.30
2018-03-17T01:41:05.732Z,3.20
2018-03-17T01:43:32.526Z,3.20
2018-03-17T01:45:58.489Z,3.20
2018-03-17T01:48:24.460Z,3.30
2018-03-17T01:50:50.444Z,3.30
2018-03-17T01:53:16.448Z,3.20
2018-03-17T01:55:43.192Z,3.30
2018-03-17T01:58:09.305Z,3.30
2018-03-17T02:00:35.361Z,3.20
2018-03-17T02:03:01.381Z,3.20
2018-03-17T02:05:27.459Z,3.20
2018-03-17T02:07:53.581Z,3.30
2018-03-17T02:10:19.552Z,3.20
2018-03-17T02:12:45.536Z,3.10
2018-03-17T02:15:11.562Z,3.30
2018-03-17T02:17:37.659Z,3.40
2018-03-17T02:20:03.693Z,3.40
2018-03-17T02:22:29.663Z,3.20
2018-03-17T02:24:55.653Z,3.30
2018-03-17T02:27:22.356Z,3.10
2018-03-17T02:29:48.348Z,3.00
2018-03-17T02:32:14.745Z,3.00
2018-03-17T02:34:40.794Z,2.90
2018-03-17T02:37:06.865Z,2.90
2018-03-17T02:39:32.995Z,2.90
2018-03-17T02:41:58.975Z,2.80
2018-03-17T02:44:24.967Z,2.80
2018-03-17T02:46:51.698Z,2.80
2018-03-17T02:49:17.692Z,2.70
2018-03-17T02:51:43.733Z,2.80
2018-03-17T02:54:09.834Z,2.80
2018-03-17T02:56:36.664Z,2.80
2018-03-17T02:59:04.255Z,2.70
2018-03-17T03:01:31.019Z,2.60
2018-03-17T03:03:57.717Z,2.50
2018-03-17T03:06:23.808Z,2.50
2018-03-17T03:08:50.596Z,2.50
2018-03-17T03:11:16.569Z,2.50
2018-03-17T03:13:42.536Z,2.40
2018-03-17T03:16:08.824Z,2.60
2018-03-17T03:18:34.876Z,2.70
2018-03-17T03:21:00.860Z,2.60
2018-03-17T03:23:27.464Z,2.60
2018-03-17T03:25:54.180Z,2.70
2018-03-17T03:28:20.160Z,2.60
2018-03-17T03:30:46.153Z,2.70
2018-03-17T03:33:12.137Z,2.70
2018-03-17T03:35:38.180Z,2.70
2018-03-17T03:38:05.079Z,2.90
2018-03-17T03:40:31.095Z,2.80
2018-03-17T03:42:57.054Z,2.80
2018-03-17T03:45:23.097Z,2.80
2018-03-17T03:47:49.081Z,2.90
2018-03-17T03:50:15.796Z,2.80
2018-03-17T03:52:41.877Z,2.80
2018-03-17T03:55:08.811Z,2.50
2018-03-17T03:57:35.686Z,2.60
2018-03-17T04:00:01.726Z,2.50
2018-03-17T04:02:28.462Z,2.50
2018-03-17T04:04:54.444Z,2.50
2018-03-17T04:07:20.487Z,2.50
2018-03-17T04:09:46.467Z,2.50
2018-03-17T04:12:12.519Z,2.40
2018-03-17T04:14:39.456Z,2.50
2018-03-17T04:17:05.532Z,2.50
2018-03-17T04:19:31.550Z,2.50
2018-03-17T04:21:58.340Z,2.50
2018-03-17T04:24:24.363Z,2.50
2018-03-17T04:26:51.154Z,2.30
2018-03-17T04:29:17.253Z,2.30
2018-03-17T04:31:43.414Z,2.30
2018-03-17T04:34:09.747Z,2.30
2018-03-17T04:36:36.207Z,2.20
2018-03-17T04:39:03.183Z,2.00
2018-03-17T04:41:29.227Z,1.90
2018-03-17T04:43:55.301Z,1.70
2018-03-17T04:46:22.091Z,2.00
2018-03-17T04:48:48.140Z,2.00
2018-03-17T04:51:14.349Z,2.10
2018-03-17T04:53:40.478Z,2.10
2018-03-17T04:56:06.645Z,2.10
2018-03-17T04:58:33.179Z,2.10
2018-03-17T05:00:59.257Z,2.00
2018-03-17T05:03:25.312Z,2.00
2018-03-17T05:05:51.345Z,2.00
2018-03-17T05:08:17.501Z,2.00
2018-03-17T05:10:44.484Z,1.90
2018-03-17T05:13:10.705Z,1.90
2018-03-17T05:15:37.653Z,1.90
2018-03-17T05:18:04.018Z,1.90
2018-03-17T05:20:30.133Z,1.90
2018-03-17T05:22:56.192Z,1.90
2018-03-17T05:25:22.963Z,2.10
2018-03-17T05:27:49.266Z,2.10
2018-03-17T05:30:15.493Z,2.10
2018-03-17T05:32:41.780Z,2.00
2018-03-17T05:35:08.203Z,1.90
2018-03-17T05:37:34.408Z,2.00
2018-03-17T05:40:00.449Z,1.80
2018-03-17T05:42:26.496Z,1.80
2018-03-17T05:44:59.569Z,1.70
2018-03-17T05:47:25.581Z,1.80
2018-03-17T05:49:51.560Z,2.00
2018-03-17T05:52:17.527Z,1.80
2018-03-17T05:54:43.643Z,1.70
2018-03-17T05:57:09.689Z,1.80
2018-03-17T05:59:35.744Z,1.70
2018-03-17T06:02:02.507Z,1.70
2018-03-17T06:04:29.267Z,1.70
2018-03-17T06:06:55.261Z,1.70
2018-03-17T06:09:21.273Z,1.70
2018-03-17T06:11:47.248Z,1.70
2018-03-17T06:14:13.320Z,1.60
2018-03-17T06:16:39.643Z,1.60
2018-03-17T06:19:06.438Z,1.60
2018-03-17T06:21:32.547Z,1.60
2018-03-17T06:23:59.355Z,1.60
2018-03-17T06:26:25.334Z,1.60
2018-03-17T06:28:52.042Z,1.70
2018-03-17T06:31:18.041Z,1.70
2018-03-17T06:33:44.136Z,1.80
2018-03-17T06:36:10.974Z,2.00
2018-03-17T06:38:37.135Z,2.00
2018-03-17T06:41:03.973Z,1.80
2018-03-17T06:43:29.965Z,1.70
2018-03-17T06:45:56.011Z,1.70
2018-03-17T06:48:21.987Z,1.90
2018-03-17T06:50:47.965Z,1.90
2018-03-17T06:53:14.197Z,1.80
2018-03-17T06:55:40.185Z,1.90
2018-03-17T06:58:06.168Z,2.00
2018-03-17T07:00:32.224Z,2.00
2018-03-17T07:02:58.945Z,1.90
2018-03-17T07:05:24.916Z,1.90
2018-03-17T07:07:52.056Z,1.90
2018-03-17T07:10:18.067Z,1.90
2018-03-17T07:12:44.030Z,1.90
2018-03-17T07:15:10.282Z,1.80
2018-03-17T07:17:36.274Z,1.80
2018-03-17T07:20:02.253Z,1.80
2018-03-17T07:22:28.986Z,1.80
2018-03-17T07:24:54.940Z,1.80
2018-03-17T07:27:20.913Z,1.90
2018-03-17T07:29:47.431Z,1.80
2018-03-17T07:32:14.126Z,1.70
2018-03-17T07:34:40.096Z,1.70
2018-03-17T07:37:06.084Z,1.60
2018-03-17T07:39:32.070Z,1.60
2018-03-17T07:41:58.031Z,1.40
2018-03-17T07:44:24.037Z,1.40
2018-03-17T07:46:50.436Z,1.40
2018-03-17T07:49:16.404Z,1.50
2018-03-17T07:51:42.430Z,1.60
2018-03-17T07:54:08.415Z,1.40
2018-03-17T07:56:35.137Z,1.60
2018-03-17T07:59:01.128Z,1.60
2018-03-17T08:01:27.098Z,1.60
2018-03-17T08:03:53.079Z,1.50
2018-03-17T08:06:19.825Z,1.60
2018-03-17T08:08:46.529Z,1.50
2018-03-17T08:11:12.509Z,1.50
2018-03-17T08:13:39.264Z,1.60
2018-03-17T08:16:05.969Z,1.70
2018-03-17T08:18:31.944Z,1.60
2018-03-17T08:20:57.968Z,1.80
2018-03-17T08:23:23.952Z,2.00
2018-03-17T08:25:49.919Z,2.00
2018-03-17T08:28:15.917Z,2.00
2018-03-17T08:30:41.887Z,2.10
2018-03-17T08:33:07.952Z,1.90
2018-03-17T08:35:34.179Z,1.70
2018-03-17T08:38:00.137Z,1.90
2018-03-17T08:40:26.080Z,1.80
2018-03-17T08:42:53.008Z,1.90
2018-03-17T08:45:18.980Z,1.80
2018-03-17T08:47:45.743Z,1.70
2018-03-17T08:50:12.171Z,1.70
2018-03-17T08:52:39.001Z,1.70
2018-03-17T08:55:05.059Z,1.70
2018-03-17T08:57:31.828Z,1.80
2018-03-17T08:59:58.537Z,2.00
2018-03-17T09:02:24.504Z,2.00
2018-03-17T09:04:51.349Z,1.80
2018-03-17T09:07:17.304Z,1.80
2018-03-17T09:09:44.007Z,1.90
2018-03-17T09:12:10.016Z,1.90
2018-03-17T09:14:35.977Z,1.80
2018-03-17T09:17:01.931Z,1.80
2018-03-17T09:19:27.972Z,1.80
2018-03-17T09:21:53.941Z,2.00
2018-03-17T09:24:19.995Z,2.00
2018-03-17T09:26:46.708Z,1.70
2018-03-17T09:29:13.457Z,1.80
2018-03-17T09:31:39.435Z,1.80
2018-03-17T09:34:05.420Z,1.50
2018-03-17T09:36:32.882Z,1.50
2018-03-17T09:38:58.859Z,1.50
2018-03-17T09:41:24.836Z,1.70
2018-03-17T09:43:57.743Z,1.90
2018-03-17T09:46:23.722Z,1.80
2018-03-17T09:48:50.457Z,1.60
2018-03-17T09:51:17.164Z,1.70
2018-03-17T09:53:43.164Z,1.70
2018-03-17T09:56:10.075Z,1.80
2018-03-17T09:58:36.091Z,1.80
2018-03-17T10:01:02.061Z,1.70
2018-03-17T10:03:28.283Z,1.50
2018-03-17T10:05:54.235Z,1.40
2018-03-17T10:08:20.247Z,1.40
2018-03-17T10:10:46.237Z,1.60
2018-03-17T10:13:12.961Z,1.70
2018-03-17T10:15:38.937Z,1.70
2018-03-17T10:18:05.731Z,1.60
2018-03-17T10:20:31.699Z,1.60
2018-03-17T10:22:57.660Z,1.60
2018-03-17T10:25:23.734Z,1.50
2018-03-17T10:27:49.686Z,1.30
2018-03-17T10:30:15.645Z,1.40
2018-03-17T10:32:42.422Z,1.50
2018-03-17T10:35:09.140Z,1.50
2018-03-17T10:37:35.248Z,1.50
2018-03-17T10:40:01.255Z,1.40
2018-03-17T10:42:27.227Z,1.40
2018-03-17T10:44:53.241Z,1.30
2018-03-17T10:47:19.532Z,1.20
2018-03-17T10:49:45.521Z,1.30
2018-03-17T10:52:11.551Z,1.10
2018-03-17T10:54:37.567Z,1.20
2018-03-17T10:57:03.548Z,1.30
2018-03-17T10:59:29.525Z,1.30
2018-03-17T11:02:01.255Z,1.10
2018-03-17T11:04:27.208Z,1.10
2018-03-17T11:06:53.170Z,1.10
2018-03-17T11:09:20.080Z,1.10
2018-03-17T11:11:46.059Z,1.20
2018-03-17T11:14:12.771Z,1.20
2018-03-17T11:16:38.882Z,1.20
2018-03-17T11:19:04.972Z,1.40
2018-03-17T11:21:30.956Z,1.40
2018-03-17T11:23:57.438Z,1.20
2018-03-17T11:26:23.421Z,1.20
2018-03-17T11:28:49.381Z,1.30
2018-03-17T11:31:15.373Z,1.20
2018-03-17T11:33:42.060Z,1.10
2018-03-17T11:36:08.020Z,1.10
2018-03-17T11:38:34.123Z,1.00
2018-03-17T11:41:00.083Z,1.10
2018-03-17T11:43:26.048Z,1.10
2018-03-17T11:45:52.037Z,1.20
2018-03-17T11:48:17.993Z,1.10
2018-03-17T11:50:43.979Z,1.20
2018-03-17T11:53:10.695Z,1.40
2018-03-17T11:55:36.668Z,1.40
2018-03-17T11:58:03.436Z,1.20
2018-03-17T12:00:29.412Z,1.20
2018-03-17T12:02:55.416Z,1.30
2018-03-17T12:05:21.489Z,1.30
2018-03-17T12:07:47.982Z,1.30
2018-03-17T12:10:14.686Z,1.00
2018-03-17T12:12:40.677Z,1.00
2018-03-17T12:15:06.679Z,1.00
2018-03-17T12:17:32.696Z,1.00
2018-03-17T12:19:58.664Z,1.00
2018-03-17T12:22:25.425Z,1.20
2018-03-17T12:24:51.447Z,1.20
2018-03-17T12:27:17.431Z,1.30
2018-03-17T12:29:43.533Z,1.20
2018-03-17T12:32:10.265Z,1.20
2018-03-17T12:34:36.232Z,1.20
2018-03-17T12:37:03.786Z,0.90
2018-03-17T12:39:30.048Z,0.90
2018-03-17T12:41:56.061Z,0.90
2018-03-17T12:44:22.823Z,0.90
2018-03-17T12:46:49.524Z,0.80
2018-03-17T12:49:15.471Z,0.80
2018-03-17T12:51:41.589Z,0.80
2018-03-17T12:54:07.675Z,0.80
2018-03-17T12:56:33.737Z,1.00
2018-03-17T12:59:00.488Z,0.90
2018-03-17T13:01:27.184Z,0.90
2018-03-17T13:03:53.149Z,0.80
2018-03-17T13:06:19.164Z,0.80
2018-03-17T13:08:45.124Z,0.90
2018-03-17T13:11:11.091Z,0.90
2018-03-17T13:13:37.134Z,0.90
2018-03-17T13:16:03.130Z,1.00
2018-03-17T13:18:29.151Z,0.70
2018-03-17T13:20:55.399Z,0.70
2018-03-17T13:23:21.361Z,0.70
2018-03-17T13:25:48.072Z,0.70
2018-03-17T13:28:25.116Z,0.70
2018-03-17T13:30:51.076Z,0.70
2018-03-17T13:33:17.062Z,0.60
2018-03-17T13:35:55.456Z,0.40
2018-03-17T13:38:21.445Z,0.50
2018-03-17T13:40:47.408Z,0.50
2018-03-17T13:43:13.494Z,0.50
2018-03-17T13:45:40.211Z,0.50
2018-03-17T13:48:06.275Z,0.40
2018-03-17T13:50:32.315Z,0.50
2018-03-17T13:52:58.302Z,0.40
2018-03-17T13:55:24.290Z,0.30
2018-03-17T13:57:50.518Z,0.20
2018-03-17T14:00:16.527Z,0.30
2018-03-17T14:02:42.567Z,0.40
2018-03-17T14:05:08.608Z,0.40
2018-03-17T14:07:34.582Z,0.40
2018-03-17T14:10:00.549Z,0.30
2018-03-17T14:12:26.765Z,0.30
2018-03-17T14:14:52.726Z,0.20
2018-03-17T14:17:18.730Z,0.10
2018-03-17T14:19:44.883Z,0.10
2018-03-17T14:22:11.609Z,0.10
2018-03-17T14:24:37.610Z,0.10
2018-03-17T14:27:03.636Z,0.20
2018-03-17T14:29:29.594Z,0.30
2018-03-17T14:31:55.535Z,0.20
2018-03-17T14:34:21.570Z,0.10
2018-03-17T14:36:47.560Z,0.10
2018-03-17T14:39:13.521Z,0.00
2018-03-17T14:41:39.876Z,-0.10
2018-03-17T14:44:05.886Z,-0.20
2018-03-17T14:46:31.848Z,-0.10
2018-03-17T14:48:57.844Z,0.00
2018-03-17T14:51:23.846Z,-0.20
2018-03-17T14:53:49.854Z,-0.30
2018-03-17T14:56:15.908Z,-0.40
2018-03-17T14:58:41.860Z,-0.40
2018-03-17T15:01:08.588Z,-0.40
2018-03-17T15:03:34.612Z,-0.40
2018-03-17T15:06:00.593Z,-0.40
2018-03-17T15:08:27.326Z,-0.30
2018-03-17T15:10:53.315Z,-0.30
2018-03-17T15:13:19.492Z,-0.30
2018-03-17T15:15:46.948Z,-0.30
2018-03-17T15:18:12.976Z,-0.30
2018-03-17T15:20:38.958Z,-0.30
2018-03-17T15:23:05.702Z,-0.30
2018-03-17T15:25:31.699Z,-0.30
2018-03-17T15:27:57.700Z,-0.20
2018-03-17T15:30:24.409Z,-0.30
2018-03-17T15:32:50.551Z,-0.30
2018-03-17T15:35:16.505Z,-0.10
2018-03-17T15:37:42.504Z,-0.30
2018-03-17T15:40:08.490Z,-0.30
2018-03-17T15:42:35.208Z,-0.10
2018-03-17T15:45:01.181Z,-0.10
2018-03-17T15:47:27.297Z,0.00
2018-03-17T15:49:53.296Z,0.10
2018-03-17T15:52:19.317Z,-0.10
2018-03-17T15:54:45.279Z,0.00
2018-03-17T15:57:11.252Z,-0.20
2018-03-17T15:59:37.960Z,-0.40
2018-03-17T16:02:04.053Z,-0.30
2018-03-17T16:04:30.844Z,-0.40
2018-03-17T16:06:56.825Z,-0.40
2018-03-17T16:09:22.841Z,-0.40
2018-03-17T16:11:48.821Z,-0.50
2018-03-17T16:14:14.788Z,-0.60
2018-03-17T16:16:40.892Z,-0.50
2018-03-17T16:19:06.854Z,-0.40
2018-03-17T16:21:32.824Z,-0.40
2018-03-17T16:23:58.968Z,-0.40
2018-03-17T16:26:25.130Z,-0.40
2018-03-17T16:28:51.108Z,-0.40
2018-03-17T16:31:17.105Z,-0.50
2018-03-17T16:33:43.802Z,-0.50
2018-03-17T16:36:09.768Z,-0.50
2018-03-17T16:38:35.772Z,-0.50
2018-03-17T16:41:01.745Z,-0.40
2018-03-17T16:43:27.778Z,-0.40
2018-03-17T16:45:53.853Z,-0.30
2018-03-17T16:48:19.896Z,-0.40
2018-03-17T16:50:45.875Z,-0.40
2018-03-17T16:53:11.866Z,-0.40
2018-03-17T16:55:37.856Z,-0.40
2018-03-17T16:58:03.828Z,-0.50
2018-03-17T17:00:29.808Z,-0.50
2018-03-17T17:02:55.792Z,-0.40
2018-03-17T17:05:22.654Z,-0.40
2018-03-17T17:07:48.671Z,-0.40
2018-03-17T17:10:15.368Z,-0.40
2018-03-17T17:12:41.334Z,-0.40
2018-03-17T17:15:07.377Z,-0.40
2018-03-17T17:17:33.359Z,-0.30
2018-03-17T17:19:59.316Z,-0.40
2018-03-17T17:22:25.497Z,-0.50
2018-03-17T17:24:52.239Z,-0.50
2018-03-17T17:27:18.321Z,-0.50
2018-03-17T17:29:44.446Z,-0.50
2018-03-17T17:32:11.143Z,-0.50
2018-03-17T17:34:37.189Z,-0.50
2018-03-17T17:37:03.333Z,-0.50
2018-03-17T17:39:29.292Z,-0.40
2018-03-17T17:41:55.321Z,-0.50
2018-03-17T17:44:21.592Z,-0.40
2018-03-17T17:46:47.551Z,-0.60
2018-03-17T17:49:13.524Z,-0.60
2018-03-17T17:51:39.774Z,-0.70
2018-03-17T17:54:05.732Z,-0.60
2018-03-17T17:56:32.427Z,-0.60
2018-03-17T17:58:58.575Z,-0.60
2018-03-17T18:01:24.548Z,-0.60
2018-03-17T18:03:51.268Z,-0.70
2018-03-17T18:06:17.305Z,-0.70
2018-03-17T18:08:43.317Z,-0.70
2018-03-17T18:11:09.297Z,-0.80
2018-03-17T18:13:36.023Z,-0.60
2018-03-17T18:16:01.998Z,-0.70
2018-03-17T18:18:28.708Z,-0.70
2018-03-17T18:20:54.720Z,-0.70
2018-03-17T18:23:20.707Z,-0.80
2018-03-17T18:25:48.194Z,-0.70
2018-03-17T18:28:15.100Z,-0.60
2018-03-17T18:30:41.079Z,-0.60
2018-03-17T18:33:07.034Z,-0.60
2018-03-17T18:35:33.762Z,-0.70
2018-03-17T18:37:59.741Z,-0.70
2018-03-17T18:40:25.719Z,-0.70
2018-03-17T18:42:51.732Z,-0.60
2018-03-17T18:45:17.772Z,-0.70
2018-03-17T18:47:43.691Z,-0.50
2018-03-17T18:50:10.009Z,-0.50
2018-03-17T18:52:36.147Z,-0.60
2018-03-17T18:55:02.151Z,-0.60
2018-03-17T18:57:28.531Z,-0.70
2018-03-17T18:59:54.525Z,-0.70
2018-03-17T19:02:20.504Z,-0.70
2018-03-17T19:04:46.539Z,-0.80
2018-03-17T19:07:12.575Z,-0.70
2018-03-17T19:09:38.629Z,-0.80
2018-03-17T19:12:04.755Z,-0.80
2018-03-17T19:14:30.729Z,-0.80
2018-03-17T19:16:57.435Z,-0.80
2018-03-17T19:19:23.901Z,-0.80
2018-03-17T19:21:49.919Z,-0.80
2018-03-17T19:24:15.919Z,-0.70
2018-03-17T19:26:42.060Z,-0.80
2018-03-17T19:29:09.108Z,-0.70
2018-03-17T19:31:35.945Z,-0.70
2018-03-17T19:34:03.211Z,-0.70
2018-03-17T19:36:29.928Z,-0.80
2018-03-17T19:38:55.897Z,-0.80
2018-03-17T19:41:22.858Z,-0.80
2018-03-17T19:43:49.566Z,-0.80
2018-03-17T19:46:15.531Z,-0.80
2018-03-17T19:48:41.685Z,-0.80
2018-03-17T19:51:08.528Z,-0.80
2018-03-17T19:53:34.525Z,-0.80
2018-03-17T19:56:00.561Z,-0.90
2018-03-17T19:58:26.542Z,-0.80
2018-03-17T20:00:52.515Z,-0.90
2018-03-17T20:03:18.525Z,-0.90
2018-03-17T20:05:45.228Z,-0.90
2018-03-17T20:08:11.290Z,-0.90
2018-03-17T20:10:37.413Z,-1.00
2018-03-17T20:13:03.588Z,-0.90
2018-03-17T20:15:30.329Z,-0.90
2018-03-17T20:17:56.467Z,-0.90
2018-03-17T20:20:22.446Z,-0.90
2018-03-17T20:22:48.487Z,-1.00
2018-03-17T20:25:14.636Z,-1.00
2018-03-17T20:27:40.779Z,-1.00
2018-03-17T20:30:06.935Z,-0.90
2018-03-17T20:32:34.000Z,-0.90
2018-03-17T20:34:59.984Z,-0.90
2018-03-17T20:37:25.955Z,-1.00
2018-03-17T20:39:52.220Z,-1.00
2018-03-17T20:42:18.180Z,-1.00
2018-03-17T20:44:44.883Z,-1.00
2018-03-17T20:47:10.950Z,-1.10
2018-03-17T20:49:37.060Z,-1.00
2018-03-17T20:52:03.088Z,-1.10
2018-03-17T20:54:30.072Z,-1.00
2018-03-17T20:56:56.052Z,-1.10
2018-03-17T20:59:22.790Z,-1.00
2018-03-17T21:01:49.552Z,-1.10
2018-03-17T21:04:16.296Z,-1.10
2018-03-17T21:06:42.352Z,-1.10
2018-03-17T21:09:08.540Z,-1.10
2018-03-17T21:11:34.590Z,-1.10
2018-03-17T21:14:01.295Z,-1.10
2018-03-17T21:16:27.328Z,-1.10
2018-03-17T21:18:53.285Z,-1.00
2018-03-17T21:21:19.260Z,-1.00
2018-03-17T21:23:45.293Z,-0.90
2018-03-17T21:26:11.355Z,-0.90
2018-03-17T21:28:38.181Z,-1.00
2018-03-17T21:31:05.189Z,-1.00
2018-03-17T21:33:31.193Z,-1.00
2018-03-17T21:35:57.902Z,-1.00
2018-03-17T21:38:23.919Z,-1.10
2018-03-17T21:40:49.899Z,-1.10
2018-03-17T21:43:16.609Z,-1.10
2018-03-17T21:45:42.695Z,-1.10
2018-03-17T21:48:08.830Z,-1.10
2018-03-17T21:50:34.908Z,-1.10
2018-03-17T21:53:00.891Z,-1.10
2018-03-17T21:55:33.953Z,-1.10
2018-03-17T21:57:59.977Z,-1.00
2018-03-17T22:00:25.981Z,-1.00
2018-03-17T22:02:51.980Z,-1.00
2018-03-17T22:05:18.146Z,-1.00
2018-03-17T22:07:44.207Z,-1.00
2018-03-17T22:10:11.092Z,-1.00
2018-03-17T22:12:37.266Z,-1.00
2018-03-17T22:15:03.658Z,-1.00
2018-03-17T22:17:29.631Z,-1.00
2018-03-17T22:19:55.633Z,-1.00
2018-03-17T22:22:22.337Z,-1.00
2018-03-17T22:24:48.358Z,-1.10
2018-03-17T22:27:15.796Z,-1.00
2018-03-17T22:29:41.861Z,-1.00
2018-03-17T22:32:07.911Z,-1.00
2018-03-17T22:34:34.016Z,-1.10
2018-03-17T22:36:59.991Z,-1.10
2018-03-17T22:39:26.002Z,-1.00
2018-03-17T22:41:51.989Z,-1.00
2018-03-17T22:44:17.954Z,-1.00
2018-03-17T22:46:43.982Z,-1.00
2018-03-17T22:49:10.901Z,-1.00
2018-03-17T22:51:37.025Z,-1.00
2018-03-17T22:54:03.407Z,-1.00
2018-03-17T22:56:30.335Z,-1.00
2018-03-17T22:58:56.305Z,-1.00
2018-03-17T23:01:23.025Z,-1.10
2018-03-17T23:03:49.280Z,-1.20
2018-03-17T23:06:15.264Z,-1.10
2018-03-17T23:08:41.330Z,-1.10
2018-03-17T23:11:07.629Z,-1.00
2018-03-17T23:13:34.505Z,-1.00
2018-03-17T23:16:00.528Z,-1.00
2018-03-17T23:18:26.608Z,-1.00
2018-03-17T23:20:52.610Z,-1.00
2018-03-17T23:23:18.573Z,-1.00
2018-03-17T23:25:44.728Z,-1.00
2018-03-17T23:28:10.821Z,-1.00
2018-03-17T23:30:37.001Z,-1.00
2018-03-17T23:33:03.154Z,-1.00
2018-03-17T23:35:29.126Z,-1.00
2018-03-17T23:37:55.116Z,-1.10
2018-03-17T23:40:21.116Z,-1.00
2018-03-17T23:42:47.140Z,-1.10
2018-03-17T23:45:13.142Z,-1.10
2018-03-17T23:47:40.021Z,-1.10
2018-03-17T23:50:06.258Z,-1.10
2018-03-17T23:52:32.374Z,-1.00
2018-03-17T23:54:58.601Z,-1.00
2018-03-17T23:57:24.576Z,-1.10
2018-03-17T23:59:50.630Z,-1.10
